Map

Track Data

SID SEASON NUMBER BASIN SUBBASIN NAME ISO_TIME NATURE LAT LON WMO_WIND WMO_PRES WMO_AGENCY TRACK_TYPE DIST2LAND LANDFALL IFLAG USA_AGENCY USA_ATCF_ID USA_LAT USA_LON USA_RECORD USA_STATUS USA_WIND USA_PRES USA_SSHS USA_R34_NE USA_R34_SE USA_R34_SW USA_R34_NW USA_R50_NE USA_R50_SE USA_R50_SW USA_R50_NW USA_R64_NE USA_R64_SE USA_R64_SW USA_R64_NW USA_POCI USA_ROCI USA_RMW USA_EYE TOKYO_LAT TOKYO_LON TOKYO_GRADE TOKYO_WIND TOKYO_PRES TOKYO_R50_DIR TOKYO_R50_LONG TOKYO_R50_SHORT TOKYO_R30_DIR TOKYO_R30_LONG TOKYO_R30_SHORT TOKYO_LAND CMA_LAT CMA_LON CMA_CAT CMA_WIND CMA_PRES HKO_LAT HKO_LON HKO_CAT HKO_WIND HKO_PRES NEWDELHI_LAT NEWDELHI_LON NEWDELHI_GRADE NEWDELHI_WIND NEWDELHI_PRES NEWDELHI_CI NEWDELHI_DP NEWDELHI_POCI REUNION_LAT REUNION_LON REUNION_TYPE REUNION_WIND REUNION_PRES REUNION_TNUM REUNION_CI REUNION_RMW REUNION_R34_NE REUNION_R34_SE REUNION_R34_SW REUNION_R34_NW REUNION_R50_NE REUNION_R50_SE REUNION_R50_SW REUNION_R50_NW REUNION_R64_NE REUNION_R64_SE REUNION_R64_SW REUNION_R64_NW BOM_LAT BOM_LON BOM_TYPE BOM_WIND BOM_PRES BOM_TNUM BOM_CI BOM_RMW BOM_R34_NE BOM_R34_SE BOM_R34_SW BOM_R34_NW BOM_R50_NE BOM_R50_SE BOM_R50_SW BOM_R50_NW BOM_R64_NE BOM_R64_SE BOM_R64_SW BOM_R64_NW BOM_ROCI BOM_POCI BOM_EYE BOM_POS_METHOD BOM_PRES_METHOD NADI_LAT NADI_LON NADI_CAT NADI_WIND NADI_PRES WELLINGTON_LAT WELLINGTON_LON WELLINGTON_WIND WELLINGTON_PRES DS824_LAT DS824_LON DS824_STAGE DS824_WIND DS824_PRES TD9636_LAT TD9636_LON TD9636_STAGE TD9636_WIND TD9636_PRES TD9635_LAT TD9635_LON TD9635_WIND TD9635_PRES TD9635_ROCI NEUMANN_LAT NEUMANN_LON NEUMANN_CLASS NEUMANN_WIND NEUMANN_PRES MLC_LAT MLC_LON MLC_CLASS MLC_WIND MLC_PRES USA_GUST BOM_GUST BOM_GUST_PER REUNION_GUST REUNION_GUST_PER USA_SEAHGT USA_SEARAD_NE USA_SEARAD_SE USA_SEARAD_SW USA_SEARAD_NW STORM_SPEED STORM_DIR
1901031S12112 1901 11 SI WA NOT_NAMED 1901-01-30 12:00:00 NR -12.4000 112.200 main 451 451 __________O___ -1 -12.4000 112.200 7 0 0
1901031S12112 1901 11 SI WA NOT_NAMED 1901-01-30 15:00:00 NR -12.3874 112.189 main 451 451 __________P___ -1 -12.3874 112.189 7 0 285
1901031S12112 1901 11 SI WA NOT_NAMED 1901-01-30 18:00:00 NR -12.3899 112.162 main 451 450 __________P___ -1 -12.3899 112.162 7 1 247
1901031S12112 1901 11 SI WA NOT_NAMED 1901-01-30 21:00:00 NR -12.4224 112.105 main 450 450 __________P___ -1 -12.4224 112.105 7 2 235
1901031S12112 1901 11 SI WA NOT_NAMED 1901-01-31 00:00:00 NR -12.5000 112.000 main 460 459 __________O___ -1 -12.5000 112.000 7 3 231
1901031S12112 1901 11 SI WA NOT_NAMED 1901-01-31 03:00:00 NR -12.6304 111.839 main 470 470 __________P___ -1 -12.6304 111.839 7 5 230
1901031S12112 1901 11 SI WA NOT_NAMED 1901-01-31 06:00:00 NR -12.7926 111.638 main 492 492 __________P___ -1 -12.7926 111.638 7 5 231
1901031S12112 1901 11 SI WA NOT_NAMED 1901-01-31 09:00:00 NR -12.9585 111.417 main 516 516 __________P___ -1 -12.9585 111.417 7 5 234
1901031S12112 1901 11 SI WA NOT_NAMED 1901-01-31 12:00:00 NR -13.1000 111.200 main 529 529 __________O___ -1 -13.1000 111.200 7 4 242
1901031S12112 1901 11 SI WA NOT_NAMED 1901-01-31 15:00:00 NR -13.1706 111.014 main 543 543 __________P___ -1 -13.1706 111.014 7 4 252
1901031S12112 1901 11 SI WA NOT_NAMED 1901-01-31 18:00:00 NR -13.2149 110.835 main 546 546 __________P___ -1 -13.2149 110.835 7 4 257
1901031S12112 1901 11 SI WA NOT_NAMED 1901-01-31 21:00:00 NR -13.2518 110.664 main 559 559 __________P___ -1 -13.2518 110.664 7 3 255
1901031S12112 1901 11 SI WA NOT_NAMED 1901-02-01 00:00:00 NR -13.3000 110.500 main 564 564 __________O___ -1 -13.3000 110.500 7 3 247
1901031S12112 1901 11 SI WA NOT_NAMED 1901-02-01 03:00:00 NR -13.3815 110.355 main 577 577 __________P___ -1 -13.3815 110.355 7 3 237
1901031S12112 1901 11 SI WA NOT_NAMED 1901-02-01 06:00:00 NR -13.4773 110.215 main 592 592 __________P___ -1 -13.4773 110.215 7 3 234
1901031S12112 1901 11 SI WA NOT_NAMED 1901-02-01 09:00:00 NR -13.5846 110.067 main 605 605 __________P___ -1 -13.5846 110.067 7 4 234
1901031S12112 1901 11 SI WA NOT_NAMED 1901-02-01 12:00:00 NR -13.7000 109.900 main 621 621 __________O___ -1 -13.7000 109.900 7 4 238
1901031S12112 1901 11 SI WA NOT_NAMED 1901-02-01 15:00:00 NR -13.8179 109.676 main 636 636 __________P___ -1 -13.8179 109.676 7 5 242
1901031S12112 1901 11 SI WA NOT_NAMED 1901-02-01 18:00:00 NR -13.9427 109.435 main 653 653 __________P___ -1 -13.9427 109.435 7 5 241
1901031S12112 1901 11 SI WA NOT_NAMED 1901-02-01 21:00:00 NR -14.0711 109.201 main 680 680 __________P___ -1 -14.0711 109.201 7 5 239
1901031S12112 1901 11 SI WA NOT_NAMED 1901-02-02 00:00:00 NR -14.2000 109.000 main 697 697 __________O___ -1 -14.2000 109.000 7 4 233
1901031S12112 1901 11 SI WA NOT_NAMED 1901-02-02 03:00:00 NR -14.3249 108.856 main 710 710 __________P___ -1 -14.3249 108.856 7 4 224
1901031S12112 1901 11 SI WA NOT_NAMED 1901-02-02 06:00:00 NR -14.4499 108.747 main 727 727 __________P___ -1 -14.4499 108.747 7 3 217
1901031S12112 1901 11 SI WA NOT_NAMED 1901-02-02 09:00:00 NR -14.5749 108.665 main 749 749 __________P___ -1 -14.5749 108.665 7 3 210
1901031S12112 1901 11 SI WA NOT_NAMED 1901-02-02 12:00:00 NR -14.7000 108.600 main 763 763 __________O___ -1 -14.7000 108.600 7 3 214
1901031S12112 1901 11 SI WA NOT_NAMED 1901-02-02 15:00:00 NR -14.8128 108.503 main 777 777 __________P___ -1 -14.8128 108.503 7 3 216
1901031S12112 1901 11 SI WA NOT_NAMED 1901-02-02 18:00:00 NR -14.9274 108.425 main 791 791 __________P___ -1 -14.9274 108.425 7 3 205
1901031S12112 1901 11 SI WA NOT_NAMED 1901-02-02 21:00:00 NR -15.0534 108.385 main 812 812 __________P___ -1 -15.0534 108.385 7 3 0
1901031S12112 1901 11 SI WA NOT_NAMED 1901-02-03 00:00:00 NR -15.2000 108.400 main 822 822 __________O___ -1 -15.2000 108.400 7 4 165
1901031S12112 1901 11 SI WA NOT_NAMED 1901-02-03 03:00:00 NR -15.3988 108.484 main 841 841 __________P___ -1 -15.3988 108.484 7 5 152
1901031S12112 1901 11 SI WA NOT_NAMED 1901-02-03 06:00:00 NR -15.6150 108.625 main 859 859 __________P___ -1 -15.6150 108.625 7 5 144
1901031S12112 1901 11 SI WA NOT_NAMED 1901-02-03 09:00:00 NR -15.8238 108.803 main 874 843 __________P___ -1 -15.8238 108.803 7 5 137
1901031S12112 1901 11 SI WA NOT_NAMED 1901-02-03 12:00:00 NR -16.0000 109.000 main 843 821 __________O___ -1 -16.0000 109.000 7 5 128
1901031S12112 1901 11 SI WA NOT_NAMED 1901-02-03 15:00:00 NR -16.1027 109.170 main 821 806 __________P___ -1 -16.1027 109.170 7 4 117
1901031S12112 1901 11 SI WA NOT_NAMED 1901-02-03 18:00:00 NR -16.1723 109.355 main 800 787 __________P___ -1 -16.1723 109.355 7 4 109
1901031S12112 1901 11 SI WA NOT_NAMED 1901-02-03 21:00:00 NR -16.2308 109.563 main 787 766 __________P___ -1 -16.2308 109.563 7 4 107
1901031S12112 1901 11 SI WA NOT_NAMED 1901-02-04 00:00:00 NR -16.3000 109.800 main 766 739 __________O___ -1 -16.3000 109.800 7 5 111
1901031S12112 1901 11 SI WA NOT_NAMED 1901-02-04 03:00:00 NR -16.4229 110.071 main 739 702 __________P___ -1 -16.4229 110.071 7 6 115
1901031S12112 1901 11 SI WA NOT_NAMED 1901-02-04 06:00:00 NR -16.5576 110.370 main 702 676 __________P___ -1 -16.5576 110.370 7 6 114
1901031S12112 1901 11 SI WA NOT_NAMED 1901-02-04 09:00:00 NR -16.6885 110.684 main 676 651 __________P___ -1 -16.6885 110.684 7 7 112
1901031S12112 1901 11 SI WA NOT_NAMED 1901-02-04 12:00:00 NR -16.8000 111.000 main 651 626 __________O___ -1 -16.8000 111.000 7 6 108
1901031S12112 1901 11 SI WA NOT_NAMED 1901-02-04 15:00:00 NR -16.8753 111.284 main 626 613 __________P___ -1 -16.8753 111.284 7 6 103
1901031S12112 1901 11 SI WA NOT_NAMED 1901-02-04 18:00:00 NR -16.9295 111.570 main 613 590 __________P___ -1 -16.9295 111.570 7 6 99
1901031S12112 1901 11 SI WA NOT_NAMED 1901-02-04 21:00:00 NR -16.9690 111.871 main 590 579 __________P___ -1 -16.9690 111.871 7 6 97
1901031S12112 1901 11 SI WA NOT_NAMED 1901-02-05 00:00:00 NR -17.0000 112.200 main 579 567 __________O___ -1 -17.0000 112.200 7 7 95
1901031S12112 1901 11 SI WA NOT_NAMED 1901-02-05 03:00:00 NR -17.0242 112.580 main 567 550 __________P___ -1 -17.0242 112.580 7 8 93
1901031S12112 1901 11 SI WA NOT_NAMED 1901-02-05 06:00:00 NR -17.0427 112.985 main 550 517 __________P___ -1 -17.0427 112.985 7 8 93
1901031S12112 1901 11 SI WA NOT_NAMED 1901-02-05 09:00:00 NR -17.0648 113.398 main 517 494 __________P___ -1 -17.0648 113.398 7 8 94
1901031S12112 1901 11 SI WA NOT_NAMED 1901-02-05 12:00:00 NR -17.1000 113.800 main 494 477 __________O___ -1 -17.1000 113.800 7 7 95
1901031S12112 1901 11 SI WA NOT_NAMED 1901-02-05 15:00:00 NR -17.1231 114.121 main 477 450 __________P___ -1 -17.1231 114.121 7 6 96
1901031S12112 1901 11 SI WA NOT_NAMED 1901-02-05 18:00:00 NR -17.1660 114.434 main 450 429 __________P___ -1 -17.1660 114.434 7 6 101
1901031S12112 1901 11 SI WA NOT_NAMED 1901-02-05 21:00:00 NR -17.2510 114.780 main 419 391 __________P___ -1 -17.2510 114.780 7 8 108
1901031S12112 1901 11 SI WA NOT_NAMED 1901-02-06 00:00:00 NR -17.4000 115.200 main 391 351 __________O___ -1 -17.4000 115.200 7 10 112
1901031S12112 1901 11 SI WA NOT_NAMED 1901-02-06 03:00:00 NR -17.6405 115.781 main 348 303 __________P___ -1 -17.6405 115.781 7 13 115
1901031S12112 1901 11 SI WA NOT_NAMED 1901-02-06 06:00:00 NR -17.9417 116.433 main 303 257 __________P___ -1 -17.9417 116.433 7 14 117
1901031S12112 1901 11 SI WA NOT_NAMED 1901-02-06 09:00:00 NR -18.2718 117.094 main 257 205 __________P___ -1 -18.2718 117.094 7 14 119
1901031S12112 1901 11 SI WA NOT_NAMED 1901-02-06 12:00:00 NR -18.6000 117.700 main 205 164 __________O___ -1 -18.6000 117.700 7 12 121
1901031S12112 1901 11 SI WA NOT_NAMED 1901-02-06 15:00:00 NR -18.8896 118.198 main 164 113 __________P___ -1 -18.8896 118.198 7 11 123
1901031S12112 1901 11 SI WA NOT_NAMED 1901-02-06 18:00:00 NR -19.1717 118.628 main 113 78 __________P___ -1 -19.1717 118.628 7 9 126
1901031S12112 1901 11 SI WA NOT_NAMED 1901-02-06 21:00:00 NR -19.4430 118.994 main 78 44 __________P___ -1 -19.4430 118.994 7 8 130
1901031S12112 1901 11 SI WA NOT_NAMED 1901-02-07 00:00:00 NR -19.7000 119.300 main 44 22 __________O___ -1 -19.7000 119.300 7 7 132
1901031S12112 1901 11 SI WA NOT_NAMED 1901-02-07 03:00:00 NR -19.9307 119.562 main 22 0 __________P___ -1 -19.9307 119.562 7 6 136
1901031S12112 1901 11 SI WA NOT_NAMED 1901-02-07 06:00:00 NR -20.1494 119.768 main 0 0 __________P___ -1 -20.1494 119.768 7 6 141
1901031S12112 1901 11 SI WA NOT_NAMED 1901-02-07 09:00:00 NR -20.3684 119.940 main 0 0 __________P___ -1 -20.3684 119.940 7 5 145
1901031S12112 1901 11 SI WA NOT_NAMED 1901-02-07 12:00:00 NR -20.6000 120.100 main 0 0 __________O___ -1 -20.6000 120.100 7 6 145
1901031S12112 1901 11 SI WA NOT_NAMED 1901-02-07 15:00:00 NR -20.8403 120.295 main 0 0 __________P___ -1 -20.8403 120.295 7 6 144
1901031S12112 1901 11 SI WA NOT_NAMED 1901-02-07 18:00:00 NR -21.0975 120.480 main 0 0 __________P___ -1 -21.0975 120.480 7 6 148
1901031S12112 1901 11 SI WA NOT_NAMED 1901-02-07 21:00:00 NR -21.3810 120.651 main 0 0 __________P___ -1 -21.3810 120.651 7 7 154
1901031S12112 1901 11 SI WA NOT_NAMED 1901-02-08 00:00:00 NR -21.7000 120.800 main 0 0 __________O___ -1 -21.7000 120.800 7 6 157
1901031S12112 1901 11 SI WA NOT_NAMED 1901-02-08 03:00:00 NR -21.9424 120.915 main 0 0 __________P___ -1 -21.9424 120.915 7 6 160
1901031S12112 1901 11 SI WA NOT_NAMED 1901-02-08 06:00:00 NR -22.2379 121.010 main 0 0 __________P___ -1 -22.2379 121.010 7 7 167
1901031S12112 1901 11 SI WA NOT_NAMED 1901-02-08 09:00:00 NR -22.6644 121.100 main 0 0 __________P___ -1 -22.6644 121.100 7 11 170
1901031S12112 1901 11 SI WA NOT_NAMED 1901-02-08 12:00:00 NR -23.3000 121.200 main 0 0 __________O___ -1 -23.3000 121.200 7 17 175
1901031S12112 1901 11 SI WA NOT_NAMED 1901-02-08 15:00:00 NR -24.3103 121.246 main 0 0 __________P___ -1 -24.3103 121.246 7 22 177
1901031S12112 1901 11 SI WA NOT_NAMED 1901-02-08 18:00:00 NR -25.5155 121.319 main 0 0 __________P___ -1 -25.5155 121.319 7 25 175
1901031S12112 1901 11 SI WA NOT_NAMED 1901-02-08 21:00:00 NR -26.7630 121.481 main 0 0 __________P___ -1 -26.7630 121.481 7 24 170
1901031S12112 1901 11 SI WA NOT_NAMED 1901-02-09 00:00:00 NR -27.9000 121.800 main 0 0 __________O___ -1 -27.9000 121.800 7 21 158
1901031S12112 1901 11 SI WA NOT_NAMED 1901-02-09 03:00:00 NR -28.7538 122.368 main 0 0 __________P___ -1 -28.7538 122.368 7 19 144
1901031S12112 1901 11 SI WA NOT_NAMED 1901-02-09 06:00:00 NR -29.4700 123.096 main 0 0 __________P___ -1 -29.4700 123.096 7 19 135
1901031S12112 1901 11 SI WA NOT_NAMED 1901-02-09 09:00:00 NR -30.0758 123.901 main 0 0 __________P___ -1 -30.0758 123.901 7 18 129
1901031S12112 1901 11 SI WA NOT_NAMED 1901-02-09 12:00:00 NR -30.6000 124.700 main 0 0 __________O___ -1 -30.6000 124.700 7 16 129
1901031S12112 1901 11 SI WA NOT_NAMED 1901-02-09 15:00:00 NR -31.0817 125.342 main 0 0 __________P___ -1 -31.0817 125.342 7 14 130
1901031S12112 1901 11 SI WA NOT_NAMED 1901-02-09 18:00:00 NR -31.4981 125.964 main 0 0 __________P___ -1 -31.4981 125.964 7 13 127
1901031S12112 1901 11 SI WA NOT_NAMED 1901-02-09 21:00:00 NR -31.8907 126.604 main 0 0 __________P___ -1 -31.8907 126.604 7 14 125
1901031S12112 1901 11 SI WA NOT_NAMED 1901-02-10 00:00:00 NR -32.3000 127.300 main 9 9 __________O___ -1 -32.3000 127.300 7 16 125
1901031S12112 1901 11 SI WA NOT_NAMED 1901-02-10 03:00:00 NR -32.7958 128.129 main 82 82 __________P___ -1 -32.7958 128.129 7 18 125
1901031S12112 1901 11 SI WA NOT_NAMED 1901-02-10 06:00:00 NR -33.3092 129.018 main 163 163 __________P___ -1 -33.3092 129.018 7 18 124
1901031S12112 1901 11 SI WA NOT_NAMED 1901-02-10 09:00:00 NR -33.8176 129.923 main 245 245 __________P___ -1 -33.8176 129.923 7 18 124
1901031S12112 1901 11 SI WA NOT_NAMED 1901-02-10 12:00:00 NR -34.3000 130.800 main 287 283 __________O___ -1 -34.3000 130.800 7 16 124
1901031S12112 1901 11 SI WA NOT_NAMED 1901-02-10 15:00:00 NR -34.6942 131.523 main 305 267 __________P___ -1 -34.6942 131.523 7 14 123
1901031S12112 1901 11 SI WA NOT_NAMED 1901-02-10 18:00:00 NR -35.0684 132.217 main 269 218 __________P___ -1 -35.0684 132.217 7 14 123
1901031S12112 1901 11 SI WA NOT_NAMED 1901-02-10 21:00:00 NR -35.4588 132.952 main 215 184 __________P___ -1 -35.4588 132.952 7 15 123
1901031S12112 1901 11 SI WA NOT_NAMED 1901-02-11 00:00:00 NR -35.9000 133.800 main 186 162 __________O___ -1 -35.9000 133.800 7 19 123
1901031S12112 1901 11 SI WA NOT_NAMED 1901-02-11 03:00:00 NR -36.4602 134.881 main 158 118 __________P___ -1 -36.4602 134.881 7 22 122
1901031S12112 1901 11 SP EA NOT_NAMED 1901-02-11 06:00:00 NR -37.0617 136.086 main 123 119 __________P___ -1 -37.0617 136.086 7 23 121
1901031S12112 1901 11 SP EA NOT_NAMED 1901-02-11 09:00:00 NR -37.6567 137.350 main 178 144 __________P___ -1 -37.6567 137.350 7 23 120
1901031S12112 1901 11 SP EA NOT_NAMED 1901-02-11 12:00:00 NR -38.2000 138.600 main 144 98 __________O___ -1 -38.2000 138.600 7 22 118
1901031S12112 1901 11 SP EA NOT_NAMED 1901-02-11 15:00:00 NR -38.6602 139.777 main 103 84 __________P___ -1 -38.6602 139.777 7 20 115
1901031S12112 1901 11 SP EA NOT_NAMED 1901-02-11 18:00:00 NR -39.0494 140.886 main 79 79 __________P___ -1 -39.0494 140.886 7 18 113
1901031S12112 1901 11 SP EA NOT_NAMED 1901-02-11 21:00:00 NR -39.3891 141.952 main 111 102 __________P___ -1 -39.3891 141.952 7 18 112
1901031S12112 1901 11 SP EA NOT_NAMED 1901-02-12 00:00:00 NR -39.7000 143.000 main 102 __________O___ -1 -39.7000 143.000 7 17 111

About IBTrACS Database

This database is a web-friendly format of International Best Track Archive for Climate Stewardship (IBTrACS), a global best track data archive curated by NOAA dating back to 1842.

Updated: 2021-10-08